Time;durP1;ratioP1;P1;durP2;ratioP2;P2;SDS_P1;SDS_P2;PMS_P1;PMS_P2;Temp;Humidity;BMP_temperature;BMP_pressure;BME280_temperature;BME280_humidity;BME280_pressure;Samples;Min_cycle;Max_cycle;Signal;HPM_P1;HPM_P2
2023/08/03 00:00:41;;;;;;;0.30;0.30;;;17.00;92.30;;;;;;4967091;28;20070;-82
2023/08/03 00:03:07;;;;;;;0.00;0.00;;;17.10;92.20;;;;;;4966017;28;20107;-82
2023/08/03 00:05:33;;;;;;;0.30;0.30;;;17.10;92.30;;;;;;4966838;28;20442;-82
2023/08/03 00:07:58;;;;;;;0.43;0.43;;;17.10;92.30;;;;;;4966511;28;20031;-83
2023/08/03 00:10:24;;;;;;;0.10;0.10;;;17.00;92.60;;;;;;4965388;28;20093;-85
2023/08/03 00:12:51;;;;;;;0.00;0.00;;;17.00;92.70;;;;;;4966857;28;20039;-82
2023/08/03 00:15:17;;;;;;;0.00;0.00;;;17.10;92.80;;;;;;4968467;28;20035;-82
2023/08/03 00:17:43;;;;;;;0.98;0.90;;;17.10;92.70;;;;;;4968527;28;20038;-82
2023/08/03 00:20:09;;;;;;;0.47;0.47;;;17.20;92.30;;;;;;4970401;28;20487;-82
2023/08/03 00:22:36;;;;;;;0.10;0.10;;;17.20;92.40;;;;;;4970454;28;20282;-84
2023/08/03 00:25:03;;;;;;;0.10;0.10;;;17.20;92.30;;;;;;4967659;28;20027;-86
2023/08/03 00:27:29;;;;;;;0.00;0.00;;;17.20;92.50;;;;;;4968488;28;20039;-82
2023/08/03 00:29:55;;;;;;;0.10;0.10;;;17.10;92.40;;;;;;4966838;28;20030;-81
2023/08/03 00:32:21;;;;;;;1.52;1.00;;;17.10;93.00;;;;;;4965491;28;20078;-81
2023/08/03 00:34:47;;;;;;;0.10;0.10;;;17.00;93.40;;;;;;4966984;28;20499;-84
2023/08/03 00:37:14;;;;;;;1.10;0.63;;;17.00;93.50;;;;;;4965239;28;20121;-81
2023/08/03 00:39:39;;;;;;;0.00;0.00;;;16.90;94.10;;;;;;4965574;28;20027;-82
2023/08/03 00:42:06;;;;;;;0.67;0.60;;;16.80;94.80;;;;;;4965347;28;20054;-81
2023/08/03 00:44:32;;;;;;;1.10;1.08;;;16.80;95.10;;;;;;4964969;28;20062;-80
2023/08/03 00:46:58;;;;;;;0.10;0.10;;;16.80;95.40;;;;;;4965971;28;20041;-80
2023/08/03 00:49:27;;;;;;;0.60;0.60;;;16.70;95.30;;;;;;4967821;28;20474;-82
2023/08/03 00:51:57;;;;;;;0.10;0.10;;;16.60;95.60;;;;;;4971226;28;20030;-80
2023/08/03 00:54:24;;;;;;;0.00;0.00;;;16.70;95.30;;;;;;4966680;28;20022;-80
2023/08/03 00:56:50;;;;;;;0.20;0.20;;;16.70;95.10;;;;;;4965868;28;20065;-81
2023/08/03 00:59:16;;;;;;;0.00;0.00;;;16.80;94.80;;;;;;4964962;28;20502;-80
2023/08/03 01:01:41;;;;;;;0.40;0.40;;;16.80;94.90;;;;;;4964976;28;20034;-81
2023/08/03 01:04:07;;;;;;;0.10;0.10;;;16.80;95.00;;;;;;4971690;28;20153;-82
2023/08/03 01:06:33;;;;;;;0.20;0.20;;;16.70;95.10;;;;;;4970576;28;20038;-82
2023/08/03 01:09:00;;;;;;;1.90;1.07;;;16.70;95.30;;;;;;4965212;28;20575;-81
2023/08/03 01:11:28;;;;;;;0.00;0.00;;;16.70;95.20;;;;;;4965228;28;20287;-81
2023/08/03 01:13:54;;;;;;;0.63;0.63;;;16.70;95.40;;;;;;4958626;28;20034;-82
2023/08/03 01:16:20;;;;;;;0.20;0.20;;;16.80;95.50;;;;;;4966831;28;20030;-81
2023/08/03 01:18:46;;;;;;;0.10;0.10;;;16.80;95.20;;;;;;4965534;28;20026;-83
2023/08/03 01:21:12;;;;;;;0.23;0.23;;;16.80;95.10;;;;;;4982203;28;20085;-82
2023/08/03 01:23:38;;;;;;;0.57;0.57;;;16.70;95.80;;;;;;4959168;28;20117;-82
2023/08/03 01:26:04;;;;;;;0.00;0.00;;;16.60;97.30;;;;;;4966478;28;20045;-83
2023/08/03 01:28:30;;;;;;;0.10;0.10;;;16.40;98.40;;;;;;4964852;28;20553;-82
2023/08/03 01:30:55;;;;;;;0.00;0.00;;;16.40;98.90;;;;;;4966649;28;20030;-82
2023/08/03 01:33:21;;;;;;;3.47;1.27;;;16.50;99.50;;;;;;4961959;28;20035;-82
2023/08/03 01:35:48;;;;;;;3.63;2.63;;;16.40;99.90;;;;;;4962983;28;20461;-81
2023/08/03 01:38:14;;;;;;;;;;;16.30;99.90;;;;;;4964866;28;20023;-81
2023/08/03 01:40:41;;;;;;;0.47;0.47;;;16.50;99.90;;;;;;4964013;28;19910;-82
2023/08/03 01:43:07;;;;;;;1.85;0.57;;;16.60;99.60;;;;;;4965916;28;20349;-81
2023/08/03 01:45:32;;;;;;;7.33;1.27;;;16.60;99.40;;;;;;4961417;28;20110;-81
2023/08/03 01:47:58;;;;;;;1.20;0.87;;;16.50;99.20;;;;;;4963585;28;20022;-83
2023/08/03 01:50:24;;;;;;;0.50;0.50;;;16.50;99.70;;;;;;4967352;28;20027;-81
2023/08/03 01:52:49;;;;;;;0.10;0.10;;;16.50;99.30;;;;;;4964191;28;20038;-81
2023/08/03 01:55:15;;;;;;;0.73;0.73;;;16.40;99.90;;;;;;4964040;28;20071;-82
2023/08/03 01:57:41;;;;;;;0.37;0.37;;;16.40;99.60;;;;;;4964239;28;20031;-82
2023/08/03 02:00:07;;;;;;;0.20;0.20;;;16.10;99.90;;;;;;4963734;28;20065;-81
2023/08/03 02:02:33;;;;;;;1.47;1.37;;;16.10;99.90;;;;;;4965777;28;20054;-81
2023/08/03 02:04:58;;;;;;;0.20;0.20;;;16.10;99.90;;;;;;4976953;28;20027;-82
2023/08/03 02:07:42;;;;;;;0.30;0.30;;;16.10;99.90;;;;;;4963513;28;20026;-80
2023/08/03 02:10:10;;;;;;;1.33;1.23;;;16.00;99.90;;;;;;4979354;28;20118;-80
2023/08/03 02:12:36;;;;;;;0.17;0.17;;;16.10;99.90;;;;;;4963805;28;20035;-84
2023/08/03 02:15:02;;;;;;;0.00;0.00;;;16.30;99.90;;;;;;4965166;28;20039;-81
2023/08/03 02:17:28;;;;;;;;;;;16.30;99.90;;;;;;4965682;28;20031;-81
2023/08/03 02:19:55;;;;;;;0.27;0.27;;;16.40;99.90;;;;;;4967311;28;20386;-81
2023/08/03 02:22:21;;;;;;;0.35;0.35;;;16.40;99.90;;;;;;4963428;28;20058;-81
2023/08/03 02:24:46;;;;;;;4.70;1.07;;;16.40;99.90;;;;;;4965591;28;20022;-81
2023/08/03 02:27:12;;;;;;;0.00;0.00;;;16.40;99.90;;;;;;4964136;28;20023;-84
2023/08/03 02:29:38;;;;;;;7.00;0.63;;;16.40;99.90;;;;;;4965885;28;20062;-80
2023/08/03 02:32:04;;;;;;;0.00;0.00;;;16.40;99.70;;;;;;4964379;28;20034;-80
2023/08/03 02:34:29;;;;;;;0.00;0.00;;;16.50;99.80;;;;;;4963041;28;20119;-82
2023/08/03 02:36:55;;;;;;;0.97;0.93;;;16.50;99.60;;;;;;4967911;28;20053;-81
2023/08/03 02:39:21;;;;;;;0.10;0.10;;;16.40;99.50;;;;;;4964236;28;20026;-81
2023/08/03 02:41:46;;;;;;;2.37;0.87;;;16.50;99.90;;;;;;4965048;28;20537;-83
2023/08/03 02:44:12;;;;;;;0.00;0.00;;;16.40;99.80;;;;;;4964128;28;20031;-84
2023/08/03 02:46:38;;;;;;;0.00;0.00;;;16.40;99.90;;;;;;4963368;28;20030;-84
2023/08/03 02:49:03;;;;;;;0.27;0.27;;;16.40;99.90;;;;;;4961074;28;20581;-82
2023/08/03 02:51:30;;;;;;;0.00;0.00;;;16.40;99.70;;;;;;4959007;28;20569;-81
2023/08/03 02:53:56;;;;;;;0.28;0.25;;;16.50;99.90;;;;;;4963047;28;20035;-81
2023/08/03 02:56:21;;;;;;;0.13;0.13;;;16.50;99.50;;;;;;4963233;28;20477;-80
2023/08/03 02:58:47;;;;;;;2.30;0.83;;;16.50;99.60;;;;;;4964783;28;20115;-82
2023/08/03 03:01:13;;;;;;;0.10;0.10;;;16.60;99.60;;;;;;4964770;28;20049;-81
2023/08/03 03:03:39;;;;;;;0.52;0.52;;;16.60;99.30;;;;;;4968321;28;20045;-81
2023/08/03 03:06:05;;;;;;;0.20;0.20;;;16.60;99.20;;;;;;4965745;28;20027;-81
2023/08/03 03:08:31;;;;;;;0.20;0.20;;;16.40;99.30;;;;;;4962401;28;20289;-82
2023/08/03 03:10:57;;;;;;;0.10;0.10;;;16.30;99.80;;;;;;4962819;28;20031;-83
2023/08/03 03:13:23;;;;;;;0.07;0.07;;;16.30;99.90;;;;;;4963680;28;20093;-80
2023/08/03 03:15:49;;;;;;;0.00;0.00;;;16.10;99.90;;;;;;4962336;28;20046;-80
2023/08/03 03:18:15;;;;;;;0.40;0.40;;;16.10;99.90;;;;;;4962976;28;20027;-80
2023/08/03 03:20:40;;;;;;;0.07;0.07;;;16.10;99.90;;;;;;4961452;28;20035;-82
2023/08/03 03:23:06;;;;;;;0.33;0.33;;;16.10;99.90;;;;;;4968243;28;20035;-81
2023/08/03 03:25:32;;;;;;;0.10;0.10;;;16.10;99.90;;;;;;4962403;28;20080;-82
2023/08/03 03:28:04;;;;;;;1.47;1.13;;;16.00;99.90;;;;;;4965637;28;20042;-79
2023/08/03 03:30:33;;;;;;;5.95;1.00;;;16.00;99.90;;;;;;4964177;28;20065;-80
2023/08/03 03:32:59;;;;;;;0.28;0.28;;;16.10;99.90;;;;;;4961367;28;20027;-80
2023/08/03 03:35:25;;;;;;;2.42;1.42;;;16.10;99.90;;;;;;4963590;28;20446;-81
2023/08/03 03:37:51;;;;;;;0.10;0.10;;;16.00;99.90;;;;;;4963860;28;20109;-82
2023/08/03 03:40:17;;;;;;;2.30;0.93;;;16.10;99.90;;;;;;4968835;28;20046;-79
2023/08/03 03:42:42;;;;;;;0.40;0.40;;;16.10;99.90;;;;;;4962453;28;20041;-81
2023/08/03 03:45:08;;;;;;;2.83;2.10;;;16.10;99.90;;;;;;4967570;28;20653;-81
2023/08/03 03:47:34;;;;;;;0.10;0.10;;;16.00;99.90;;;;;;4963809;28;20125;-81
2023/08/03 03:50:00;;;;;;;0.17;0.17;;;16.00;99.90;;;;;;4967401;28;20510;-81
2023/08/03 03:52:26;;;;;;;0.10;0.10;;;15.90;99.90;;;;;;4963865;28;20031;-80
2023/08/03 03:54:52;;;;;;;0.10;0.10;;;16.00;99.90;;;;;;4962359;28;20278;-79
2023/08/03 03:57:17;;;;;;;0.10;0.10;;;16.10;99.90;;;;;;4964179;28;20039;-82
2023/08/03 03:59:43;;;;;;;0.23;0.23;;;16.00;99.90;;;;;;4964153;28;20458;-78
2023/08/03 04:02:09;;;;;;;0.00;0.00;;;16.10;99.90;;;;;;4967187;28;20022;-80
2023/08/03 04:04:34;;;;;;;0.40;0.40;;;16.10;99.90;;;;;;4977831;28;20022;-79
2023/08/03 04:07:00;;;;;;;1.10;0.67;;;16.10;99.90;;;;;;4967661;28;20081;-79
2023/08/03 04:09:26;;;;;;;1.10;0.73;;;16.10;99.90;;;;;;4966322;28;20031;-80
2023/08/03 04:11:52;;;;;;;4.23;2.43;;;16.20;99.90;;;;;;4967566;28;20023;-79
2023/08/03 04:14:17;;;;;;;0.20;0.20;;;16.10;99.90;;;;;;4967542;28;20133;-79
2023/08/03 04:16:43;;;;;;;0.10;0.10;;;16.10;99.90;;;;;;4966284;28;20460;-79
2023/08/03 04:19:09;;;;;;;0.23;0.23;;;16.00;99.90;;;;;;4969468;28;20914;-80
2023/08/03 04:21:35;;;;;;;13.03;1.50;;;16.00;99.90;;;;;;4965836;28;20059;-79
2023/08/03 04:24:00;;;;;;;0.30;0.30;;;16.10;99.90;;;;;;4966176;28;20410;-81
2023/08/03 04:26:26;;;;;;;0.20;0.20;;;16.00;99.90;;;;;;4966701;28;20027;-81
2023/08/03 04:28:51;;;;;;;0.17;0.17;;;15.90;99.90;;;;;;4979200;28;20122;-78
2023/08/03 04:31:17;;;;;;;0.10;0.10;;;15.90;99.90;;;;;;4966881;28;20109;-81
2023/08/03 04:33:43;;;;;;;6.93;1.07;;;16.10;99.90;;;;;;4965306;28;20121;-84
2023/08/03 04:36:09;;;;;;;5.33;1.27;;;15.90;99.90;;;;;;4960712;28;20137;-80
2023/08/03 04:38:34;;;;;;;0.20;0.20;;;15.80;99.90;;;;;;4965612;28;20146;-81
2023/08/03 04:41:01;;;;;;;0.00;0.00;;;15.50;99.90;;;;;;4973670;28;20026;-80
2023/08/03 04:43:27;;;;;;;0.22;0.22;;;15.60;99.90;;;;;;4969342;28;20023;-78
2023/08/03 04:45:53;;;;;;;0.80;0.80;;;15.50;99.90;;;;;;4966507;28;20030;-79
2023/08/03 04:48:19;;;;;;;0.10;0.10;;;15.40;99.90;;;;;;4968533;28;20046;-79
2023/08/03 04:50:45;;;;;;;0.57;0.57;;;15.50;99.90;;;;;;4974671;28;20653;-80
2023/08/03 04:53:10;;;;;;;0.40;0.40;;;15.60;99.90;;;;;;4966886;28;20499;-81
2023/08/03 04:55:36;;;;;;;0.00;0.00;;;15.30;99.90;;;;;;4965968;28;20372;-81
2023/08/03 04:58:02;;;;;;;0.57;0.57;;;15.00;99.90;;;;;;4967832;28;20031;-80
2023/08/03 05:00:28;;;;;;;0.30;0.30;;;14.90;99.90;;;;;;4974651;28;20203;-81
2023/08/03 05:02:54;;;;;;;0.00;0.00;;;14.80;99.90;;;;;;4966686;28;20489;-83
2023/08/03 05:05:19;;;;;;;0.10;0.10;;;14.80;99.90;;;;;;4966977;28;20132;-82
2023/08/03 05:07:45;;;;;;;0.10;0.10;;;14.80;99.90;;;;;;4961388;28;20832;-80
2023/08/03 05:10:11;;;;;;;0.00;0.00;;;14.80;99.90;;;;;;4968061;28;20026;-80
2023/08/03 05:12:41;;;;;;;0.63;0.63;;;14.80;99.90;;;;;;4965320;28;20031;-76
2023/08/03 05:15:08;;;;;;;0.05;0.05;;;14.80;99.90;;;;;;4965070;28;20035;-78
2023/08/03 05:17:33;;;;;;;0.20;0.20;;;14.90;99.90;;;;;;4964385;28;20037;-80
2023/08/03 05:19:59;;;;;;;0.03;0.03;;;15.00;99.90;;;;;;4966398;28;20030;-79
2023/08/03 05:22:25;;;;;;;0.20;0.20;;;15.00;99.90;;;;;;4965148;28;20055;-77
2023/08/03 05:24:51;;;;;;;0.00;0.00;;;14.90;99.90;;;;;;4965911;28;20035;-77
2023/08/03 05:27:16;;;;;;;3.37;1.13;;;15.10;99.90;;;;;;4965497;28;20101;-79
2023/08/03 05:29:43;;;;;;;2.37;1.30;;;15.20;99.90;;;;;;4964352;28;20039;-78
2023/08/03 05:32:09;;;;;;;1.67;0.82;;;15.40;99.90;;;;;;4965510;28;20710;-78
2023/08/03 05:34:35;;;;;;;1.70;1.60;;;15.40;99.90;;;;;;4963619;28;20046;-80
2023/08/03 05:37:00;;;;;;;0.00;0.00;;;15.50;99.90;;;;;;4964642;28;20029;-78
2023/08/03 05:39:27;;;;;;;0.10;0.10;;;15.50;99.90;;;;;;4968018;28;20489;-78
2023/08/03 05:41:53;;;;;;;0.10;0.10;;;15.40;99.90;;;;;;4961516;28;20027;-83
2023/08/03 05:44:19;;;;;;;0.10;0.10;;;16.00;99.90;;;;;;4963562;28;20511;-82
2023/08/03 05:46:45;;;;;;;0.00;0.00;;;16.40;99.90;;;;;;4963554;28;20035;-85
2023/08/03 05:49:12;;;;;;;0.00;0.00;;;16.70;99.90;;;;;;4965045;28;20046;-85
2023/08/03 05:51:39;;;;;;;0.75;0.50;;;18.50;99.90;;;;;;4974745;28;20038;-85
2023/08/03 05:54:05;;;;;;;0.00;0.00;;;20.40;94.60;;;;;;4963041;28;20039;-85
2023/08/03 05:56:34;;;;;;;2.80;1.80;;;21.40;91.20;;;;;;4963552;28;20034;-85
2023/08/03 05:59:00;;;;;;;0.00;0.00;;;19.80;91.60;;;;;;4956177;28;21064;-85
2023/08/03 06:01:26;;;;;;;;;;;18.00;96.60;;;;;;4961829;28;20039;-85
2023/08/03 06:03:53;;;;;;;0.00;0.00;;;17.50;99.90;;;;;;4965185;28;19964;-85
2023/08/03 06:06:19;;;;;;;;;;;17.60;99.80;;;;;;4964163;28;20030;-84
2023/08/03 06:08:51;;;;;;;0.00;0.00;;;17.90;99.80;;;;;;4965157;28;19977;-84
2023/08/03 06:11:20;;;;;;;0.00;0.00;;;18.00;98.60;;;;;;4962525;28;20256;-86
2023/08/03 06:13:47;;;;;;;0.93;0.85;;;17.80;98.80;;;;;;4963683;28;20023;-83
2023/08/03 06:16:13;;;;;;;;;;;17.90;98.70;;;;;;4965868;28;20509;-85
2023/08/03 06:18:52;;;;;;;1.77;0.65;;;17.90;98.80;;;;;;4964638;28;19968;-83
2023/08/03 06:21:19;;;;;;;0.00;0.00;;;17.80;98.10;;;;;;4962879;28;20055;-84
2023/08/03 06:23:46;;;;;;;;;;;17.50;99.90;;;;;;4963839;28;20031;-81
2023/08/03 06:26:13;;;;;;;0.65;0.65;;;17.00;99.70;;;;;;4954121;28;19917;-81
2023/08/03 06:28:39;;;;;;;0.40;0.40;;;16.90;99.90;;;;;;4965340;28;20034;-80
2023/08/03 06:31:15;;;;;;;0.97;0.63;;;17.00;99.90;;;;;;4965119;28;20035;-79
2023/08/03 06:33:44;;;;;;;;;;;17.30;99.90;;;;;;4965056;28;20301;-80
2023/08/03 06:36:20;;;;;;;1.85;1.65;;;17.30;99.40;;;;;;4964892;28;19910;-80
2023/08/03 06:38:46;;;;;;;2.42;1.10;;;17.10;99.90;;;;;;4963642;28;20042;-79
2023/08/03 06:41:13;;;;;;;0.03;0.03;;;17.00;99.90;;;;;;4964554;28;20458;-80
2023/08/03 06:43:38;;;;;;;0.52;0.52;;;17.00;99.90;;;;;;4963599;28;20039;-79
2023/08/03 06:46:05;;;;;;;0.10;0.10;;;17.00;99.90;;;;;;4963223;28;20034;-80
2023/08/03 06:48:35;;;;;;;7.65;0.95;;;17.30;99.90;;;;;;4965019;28;20030;-81
2023/08/03 06:51:02;;;;;;;15.35;0.85;;;17.30;99.70;;;;;;4970064;28;20038;-79
2023/08/03 06:53:28;;;;;;;0.38;0.38;;;17.30;98.80;;;;;;4964330;28;20820;-81
2023/08/03 06:55:54;;;;;;;0.00;0.00;;;17.20;99.40;;;;;;4964335;28;20031;-81
2023/08/03 06:58:20;;;;;;;0.10;0.10;;;17.20;99.60;;;;;;4964542;28;20025;-80
2023/08/03 07:00:46;;;;;;;0.30;0.30;;;17.40;99.20;;;;;;4964998;28;20035;-82
2023/08/03 07:03:13;;;;;;;0.00;0.00;;;17.30;98.70;;;;;;4963040;28;20023;-79
2023/08/03 07:05:39;;;;;;;1.05;0.75;;;17.40;99.10;;;;;;4976221;28;20121;-81
2023/08/03 07:08:05;;;;;;;1.00;0.25;;;17.20;99.40;;;;;;4963154;28;20498;-80
2023/08/03 07:10:32;;;;;;;2.23;1.20;;;17.30;99.90;;;;;;4963265;28;20491;-83
2023/08/03 07:12:58;;;;;;;0.50;0.50;;;17.30;99.30;;;;;;4964154;28;20903;-80
2023/08/03 07:15:23;;;;;;;0.03;0.03;;;17.20;99.60;;;;;;4963281;28;20026;-80
2023/08/03 07:17:49;;;;;;;0.10;0.10;;;17.70;98.40;;;;;;4964913;28;20057;-81
2023/08/03 07:20:16;;;;;;;0.67;0.67;;;18.70;95.20;;;;;;4966881;28;20121;-81
2023/08/03 07:22:45;;;;;;;0.20;0.20;;;18.00;94.40;;;;;;4961796;28;20046;-80
2023/08/03 07:25:11;;;;;;;0.57;0.57;;;17.20;96.70;;;;;;4963074;28;20030;-83
2023/08/03 07:27:40;;;;;;;0.10;0.10;;;17.30;97.70;;;;;;4963198;28;20499;-80
2023/08/03 07:30:07;;;;;;;0.00;0.00;;;17.20;97.80;;;;;;4964424;28;20035;-82
2023/08/03 07:32:33;;;;;;;;;;;17.10;97.80;;;;;;4964520;28;20467;-79
2023/08/03 07:35:00;;;;;;;0.10;0.10;;;17.00;97.00;;;;;;4962494;28;20082;-80
2023/08/03 07:37:25;;;;;;;;;;;17.20;97.80;;;;;;4965481;28;20035;-81
2023/08/03 07:39:51;;;;;;;0.00;0.00;;;18.50;96.00;;;;;;4964924;28;19937;-79
2023/08/03 07:42:17;;;;;;;0.10;0.10;;;20.70;88.80;;;;;;4965330;28;20254;-79
2023/08/03 07:44:42;;;;;;;0.47;0.47;;;20.50;88.40;;;;;;4964517;28;20121;-82
2023/08/03 07:47:08;;;;;;;0.10;0.10;;;21.10;86.30;;;;;;4969369;28;20038;-81
2023/08/03 07:49:34;;;;;;;0.00;0.00;;;23.10;75.30;;;;;;4967733;28;20031;-83
2023/08/03 07:51:59;;;;;;;0.00;0.00;;;22.40;77.00;;;;;;4963596;28;20041;-82
2023/08/03 07:54:25;;;;;;;0.00;0.00;;;19.90;85.10;;;;;;4964065;28;20034;-81
2023/08/03 07:56:51;;;;;;;0.17;0.17;;;19.10;90.60;;;;;;4963864;28;20031;-83
2023/08/03 07:59:16;;;;;;;0.00;0.00;;;18.70;93.10;;;;;;4964329;28;20058;-79
2023/08/03 08:01:43;;;;;;;0.00;0.00;;;18.60;93.20;;;;;;4964274;28;20041;-83
2023/08/03 08:04:09;;;;;;;;;;;18.30;92.60;;;;;;4972263;28;20026;-80
2023/08/03 08:06:35;;;;;;;0.00;0.00;;;18.30;92.00;;;;;;4967381;28;19914;-80
2023/08/03 08:09:01;;;;;;;0.00;0.00;;;18.10;93.10;;;;;;4962787;28;20122;-83
2023/08/03 08:11:29;;;;;;;1.00;0.93;;;18.00;93.70;;;;;;4962185;28;20169;-80
2023/08/03 08:13:59;;;;;;;0.28;0.28;;;17.90;94.10;;;;;;4963834;28;20035;-82
2023/08/03 08:16:25;;;;;;;0.00;0.00;;;17.80;95.10;;;;;;4965124;28;20018;-80
2023/08/03 08:18:51;;;;;;;0.00;0.00;;;18.10;94.90;;;;;;4962689;28;20035;-82
2023/08/03 08:21:17;;;;;;;0.00;0.00;;;18.70;94.60;;;;;;4964308;28;20866;-78
2023/08/03 08:23:42;;;;;;;0.40;0.40;;;19.50;92.10;;;;;;4962914;28;20050;-82
2023/08/03 08:26:18;;;;;;;0.13;0.13;;;19.20;92.00;;;;;;4963695;28;20042;-80
2023/08/03 08:28:46;;;;;;;0.10;0.10;;;19.20;91.40;;;;;;4970885;28;20745;-82
2023/08/03 08:31:12;;;;;;;0.00;0.00;;;18.40;92.60;;;;;;4963701;28;20038;-81
2023/08/03 08:33:38;;;;;;;0.93;0.73;;;18.20;93.50;;;;;;4964028;28;20074;-81
2023/08/03 08:36:03;;;;;;;0.00;0.00;;;17.80;94.30;;;;;;4961920;28;20805;-80
2023/08/03 08:38:30;;;;;;;1.60;0.40;;;17.50;95.40;;;;;;4965000;28;20075;-81
2023/08/03 08:40:56;;;;;;;0.00;0.00;;;17.30;98.20;;;;;;4964409;28;20031;-85
2023/08/03 08:43:22;;;;;;;0.13;0.13;;;17.00;98.80;;;;;;4964800;28;20505;-79
2023/08/03 08:45:48;;;;;;;0.00;0.00;;;16.90;99.90;;;;;;4963691;28;20231;-80
2023/08/03 08:48:14;;;;;;;0.43;0.43;;;17.20;99.90;;;;;;4967067;28;20026;-79
2023/08/03 08:50:41;;;;;;;0.00;0.00;;;17.90;99.90;;;;;;4977266;28;20108;-80
2023/08/03 08:53:06;;;;;;;;;;;18.30;97.90;;;;;;4983999;28;20129;-80
2023/08/03 08:55:32;;;;;;;0.00;0.00;;;19.10;96.40;;;;;;4967235;28;19916;-82
2023/08/03 08:57:59;;;;;;;0.00;0.00;;;25.80;81.80;;;;;;4964970;28;20121;-80
2023/08/03 09:00:26;;;;;;;0.00;0.00;;;25.60;70.10;;;;;;4958392;28;20277;-82
2023/08/03 09:02:59;;;;;;;0.75;0.75;;;25.80;71.10;;;;;;4967163;28;20037;-79
2023/08/03 09:05:26;;;;;;;0.00;0.00;;;26.50;70.20;;;;;;4972491;28;20026;-80
2023/08/03 09:08:09;;;;;;;0.00;0.00;;;26.40;70.70;;;;;;4967345;28;20033;-79
2023/08/03 09:10:52;;;;;;;0.25;0.25;;;25.50;71.60;;;;;;4966726;28;20023;-82
2023/08/03 09:13:28;;;;;;;0.55;0.55;;;28.10;67.40;;;;;;4965805;28;20034;-81
2023/08/03 09:15:55;;;;;;;0.00;0.00;;;27.20;64.00;;;;;;4965770;28;20027;-81
2023/08/03 09:18:21;;;;;;;0.70;0.43;;;24.30;73.60;;;;;;4967258;28;20089;-82
2023/08/03 09:20:47;;;;;;;0.00;0.00;;;26.70;68.00;;;;;;4963283;28;20035;-79
2023/08/03 09:23:27;;;;;;;0.00;0.00;;;26.50;68.00;;;;;;4967831;28;20027;-79
2023/08/03 09:25:53;;;;;;;0.10;0.10;;;26.60;64.50;;;;;;4966243;28;20027;-80
2023/08/03 09:28:19;;;;;;;0.75;0.60;;;24.90;69.60;;;;;;4966747;28;20033;-79
2023/08/03 09:30:49;;;;;;;0.00;0.00;;;24.30;73.70;;;;;;4964679;28;20085;-80
2023/08/03 09:33:15;;;;;;;0.28;0.28;;;24.20;72.60;;;;;;4966810;28;20101;-80
2023/08/03 09:35:41;;;;;;;0.00;0.00;;;23.80;74.00;;;;;;4965559;28;20034;-80
2023/08/03 09:38:23;;;;;;;1.10;0.47;;;23.70;74.40;;;;;;4966781;28;20125;-80
2023/08/03 09:40:50;;;;;;;0.17;0.17;;;23.10;75.30;;;;;;4966212;28;20499;-80
2023/08/03 09:43:17;;;;;;;0.30;0.28;;;22.80;75.60;;;;;;4967383;28;20027;-81
2023/08/03 09:45:45;;;;;;;0.10;0.10;;;22.70;77.90;;;;;;4965489;28;20042;-80
2023/08/03 09:48:12;;;;;;;0.00;0.00;;;24.40;73.70;;;;;;4966190;28;20106;-81
2023/08/03 09:50:40;;;;;;;0.00;0.00;;;23.80;71.30;;;;;;4972781;28;20117;-80
2023/08/03 09:53:12;;;;;;;0.40;0.40;;;23.60;74.50;;;;;;4964330;28;20085;-82
2023/08/03 09:55:45;;;;;;;0.03;0.03;;;23.40;72.30;;;;;;4964438;28;20042;-81
2023/08/03 09:58:15;;;;;;;0.50;0.43;;;24.60;70.40;;;;;;4967729;28;20030;-83
2023/08/03 10:00:45;;;;;;;0.10;0.10;;;29.70;60.70;;;;;;4965934;28;20117;-80
2023/08/03 10:03:18;;;;;;;0.08;0.08;;;30.10;59.80;;;;;;4965452;28;20050;-81
2023/08/03 10:05:55;;;;;;;0.20;0.20;;;31.30;52.90;;;;;;4962350;28;20085;-79
2023/08/03 10:08:32;;;;;;;0.00;0.00;;;27.10;59.90;;;;;;4980555;28;20039;-79
2023/08/03 10:11:03;;;;;;;0.00;0.00;;;28.80;60.20;;;;;;4966316;28;20046;-85
2023/08/03 10:13:37;;;;;;;19.45;1.42;;;25.70;60.60;;;;;;4963635;28;20414;-81
2023/08/03 10:16:03;;;;;;;0.32;0.32;;;25.10;64.00;;;;;;4955577;28;20121;-80
2023/08/03 10:18:31;;;;;;;0.10;0.10;;;23.80;67.00;;;;;;4965601;28;20026;-83
2023/08/03 10:20:58;;;;;;;0.00;0.00;;;22.70;70.20;;;;;;4967249;28;20061;-84
2023/08/03 10:23:23;;;;;;;2.17;1.55;;;21.70;72.10;;;;;;4965924;28;20781;-80
2023/08/03 10:26:00;;;;;;;1.40;1.00;;;21.50;75.00;;;;;;4965215;28;20030;-80
2023/08/03 10:28:25;;;;;;;;;;;21.10;73.90;;;;;;4965659;28;20558;-81
2023/08/03 10:31:18;;;;;;;0.10;0.10;;;21.90;76.70;;;;;;4963472;28;19952;-81
2023/08/03 10:33:51;;;;;;;0.25;0.25;;;22.30;74.70;;;;;;4964403;28;20058;-82
2023/08/03 10:38:58;;;;;;;0.10;0.10;;;20.60;77.50;;;;;;4966040;28;20498;-84
2023/08/03 10:41:30;;;;;;;0.28;0.28;;;21.00;77.80;;;;;;4965377;28;20042;-79
2023/08/03 10:44:12;;;;;;;0.00;0.00;;;21.40;77.60;;;;;;4965247;28;20054;-81
2023/08/03 10:46:39;;;;;;;0.17;0.17;;;21.60;77.40;;;;;;4962518;28;20027;-79
2023/08/03 10:49:20;;;;;;;0.00;0.00;;;21.70;78.20;;;;;;4965620;28;20054;-79
2023/08/03 10:51:53;;;;;;;0.00;0.00;;;22.60;72.30;;;;;;4977619;28;20030;-82
2023/08/03 10:54:28;;;;;;;0.00;0.00;;;22.70;74.10;;;;;;4965091;28;20039;-80
2023/08/03 10:57:08;;;;;;;0.77;0.52;;;23.00;70.50;;;;;;4967404;28;20069;-78
2023/08/03 10:59:37;;;;;;;0.82;0.80;;;22.60;70.70;;;;;;4961981;28;20042;-79
2023/08/03 11:02:12;;;;;;;0.00;0.00;;;22.40;72.30;;;;;;4964704;28;20023;-78
2023/08/03 11:04:39;;;;;;;0.05;0.05;;;22.80;73.40;;;;;;4966302;28;20030;-82
2023/08/03 11:07:07;;;;;;;0.55;0.55;;;23.70;72.10;;;;;;4964377;28;20023;-79
2023/08/03 11:09:33;;;;;;;1.38;0.70;;;23.80;71.30;;;;;;4966332;28;20022;-81
2023/08/03 11:11:59;;;;;;;;;;;24.30;66.60;;;;;;4963386;28;20569;-81
2023/08/03 11:14:26;;;;;;;1.02;0.28;;;23.50;68.90;;;;;;4963588;28;19920;-81
2023/08/03 11:16:52;;;;;;;3.10;1.77;;;23.60;70.20;;;;;;4964469;28;20045;-79
2023/08/03 11:19:17;;;;;;;0.00;0.00;;;23.20;68.90;;;;;;4968360;28;20026;-83
2023/08/03 11:21:43;;;;;;;0.00;0.00;;;22.80;73.20;;;;;;4961047;28;20059;-81
2023/08/03 11:24:10;;;;;;;0.37;0.37;;;22.20;73.30;;;;;;4964590;28;20035;-79
2023/08/03 11:26:37;;;;;;;0.00;0.00;;;21.30;73.50;;;;;;4962710;28;20031;-80
2023/08/03 11:29:03;;;;;;;0.22;0.22;;;20.80;76.00;;;;;;4962720;28;20027;-82
2023/08/03 11:31:28;;;;;;;0.00;0.00;;;20.70;77.00;;;;;;4962882;28;20042;-81
2023/08/03 11:33:55;;;;;;;0.17;0.17;;;20.90;77.50;;;;;;4965017;28;20710;-80
2023/08/03 11:36:22;;;;;;;0.08;0.05;;;20.70;79.10;;;;;;4964760;28;20054;-81
2023/08/03 11:38:49;;;;;;;0.10;0.10;;;22.00;81.20;;;;;;4964455;28;20066;-85
2023/08/03 11:41:16;;;;;;;0.00;0.00;;;22.50;78.70;;;;;;4962619;28;20506;-80
2023/08/03 11:43:42;;;;;;;4.00;0.30;;;22.50;80.00;;;;;;4964794;28;20727;-85
2023/08/03 11:46:08;;;;;;;0.13;0.13;;;22.20;79.20;;;;;;4968956;28;20033;-80
2023/08/03 11:48:34;;;;;;;0.00;0.00;;;21.90;79.80;;;;;;4963943;28;20113;-82
2023/08/03 11:51:01;;;;;;;0.10;0.10;;;22.10;79.80;;;;;;4969903;28;20493;-80
2023/08/03 11:53:31;;;;;;;0.05;0.05;;;21.90;80.60;;;;;;4964771;28;20035;-80
2023/08/03 11:55:57;;;;;;;0.00;0.00;;;21.80;78.20;;;;;;4964208;28;20030;-80
2023/08/03 11:58:23;;;;;;;;;;;22.50;82.00;;;;;;4964541;28;20030;-80
2023/08/03 12:00:56;;;;;;;0.00;0.00;;;22.90;80.10;;;;;;4964374;28;19910;-82
2023/08/03 12:03:35;;;;;;;0.20;0.20;;;22.80;74.20;;;;;;4965813;28;20027;-79
2023/08/03 12:06:04;;;;;;;0.13;0.13;;;22.40;75.70;;;;;;4960881;28;20037;-80
2023/08/03 12:08:30;;;;;;;0.00;0.00;;;22.50;75.10;;;;;;4964086;28;20490;-80
2023/08/03 12:11:01;;;;;;;0.10;0.10;;;22.90;70.90;;;;;;4978693;28;20034;-81
2023/08/03 12:13:28;;;;;;;0.47;0.47;;;23.50;67.90;;;;;;4964044;28;20038;-84
2023/08/03 12:15:54;;;;;;;0.00;0.00;;;23.50;69.70;;;;;;4963905;28;20038;-81
2023/08/03 12:18:21;;;;;;;0.00;0.00;;;23.00;70.10;;;;;;4964314;28;20034;-82
2023/08/03 12:20:49;;;;;;;0.00;0.00;;;22.90;70.50;;;;;;4965740;28;20041;-80
2023/08/03 12:23:18;;;;;;;0.32;0.32;;;23.10;69.60;;;;;;4967763;28;20053;-81
2023/08/03 12:25:44;;;;;;;0.00;0.00;;;23.70;69.20;;;;;;4969820;28;20130;-80
2023/08/03 12:28:10;;;;;;;0.00;0.00;;;23.90;66.60;;;;;;4966664;28;20031;-81
2023/08/03 12:30:37;;;;;;;0.05;0.05;;;24.10;66.20;;;;;;4966106;28;20236;-81
2023/08/03 12:33:03;;;;;;;0.38;0.25;;;23.90;65.40;;;;;;4965886;28;20041;-81
2023/08/03 12:35:29;;;;;;;0.55;0.30;;;23.10;66.60;;;;;;4967698;28;20023;-80
2023/08/03 12:37:54;;;;;;;1.63;1.20;;;22.80;68.00;;;;;;4966868;28;20588;-82
2023/08/03 12:40:20;;;;;;;0.03;0.03;;;22.70;69.10;;;;;;4967126;28;20027;-79
2023/08/03 12:42:46;;;;;;;0.00;0.00;;;23.10;70.50;;;;;;4966578;28;20580;-81
2023/08/03 12:45:11;;;;;;;0.00;0.00;;;23.70;68.50;;;;;;4970161;28;20033;-80
2023/08/03 12:47:37;;;;;;;0.00;0.00;;;23.60;65.60;;;;;;4967006;28;20050;-80
2023/08/03 12:50:06;;;;;;;0.00;0.00;;;23.40;66.90;;;;;;4967450;28;20513;-81
2023/08/03 12:52:32;;;;;;;0.60;0.60;;;22.50;70.00;;;;;;4967270;28;20498;-79